Time;durP1;ratioP1;P1;durP2;ratioP2;P2;SDS_P1;SDS_P2;PMS_P1;PMS_P2;Temp;Humidity;BMP_temperature;BMP_pressure;BME280_temperature;BME280_humidity;BME280_pressure;Samples;Min_cycle;Max_cycle;Signal;HPM_P1;HPM_P2
2021/10/17 00:00:49;;;;;;;38.65;20.95;;;3.20;99.90;;;;;;5093384;28;20029;-67
2021/10/17 00:03:15;;;;;;;43.00;22.20;;;3.20;99.90;;;;;;5091866;28;20024;-67
2021/10/17 00:05:41;;;;;;;42.67;23.05;;;3.30;99.90;;;;;;5092946;28;20181;-66
2021/10/17 00:08:08;;;;;;;44.60;22.75;;;3.30;99.90;;;;;;5093589;28;20025;-67
2021/10/17 00:10:36;;;;;;;36.30;20.90;;;3.20;99.90;;;;;;5092415;28;20029;-66
2021/10/17 00:13:06;;;;;;;37.47;19.80;;;3.20;99.90;;;;;;5095714;28;20509;-66
2021/10/17 00:15:33;;;;;;;36.08;20.45;;;3.20;99.90;;;;;;5097236;28;20235;-67
2021/10/17 00:18:00;;;;;;;35.78;19.05;;;3.20;99.90;;;;;;5096912;28;20030;-67
2021/10/17 00:20:27;;;;;;;29.10;17.98;;;3.20;99.90;;;;;;5096882;28;20047;-67
2021/10/17 00:22:53;;;;;;;34.78;20.25;;;3.20;99.90;;;;;;5097073;28;20476;-67
2021/10/17 00:25:20;;;;;;;31.65;18.85;;;3.20;99.90;;;;;;5096709;28;20031;-67
2021/10/17 00:27:46;;;;;;;28.95;19.33;;;3.20;99.90;;;;;;5096955;28;20024;-65
2021/10/17 00:30:12;;;;;;;30.10;18.90;;;3.20;99.90;;;;;;5096943;28;20024;-65
2021/10/17 00:32:38;;;;;;;30.67;17.95;;;3.20;99.90;;;;;;5096872;28;20457;-65
2021/10/17 00:35:05;;;;;;;31.90;19.30;;;3.20;99.90;;;;;;5096830;28;20028;-67
2021/10/17 00:37:32;;;;;;;33.88;19.25;;;3.10;99.90;;;;;;5096539;28;20048;-67
2021/10/17 00:39:59;;;;;;;36.53;19.92;;;3.10;99.90;;;;;;5095311;28;20028;-67
2021/10/17 00:42:24;;;;;;;31.80;18.50;;;3.10;99.90;;;;;;5096672;28;20438;-67
2021/10/17 00:44:59;;;;;;;38.85;20.45;;;3.10;99.90;;;;;;5096576;28;20073;-65
2021/10/17 00:47:25;;;;;;;32.22;18.70;;;3.00;99.90;;;;;;5096324;28;20032;-65
2021/10/17 00:49:51;;;;;;;34.40;20.50;;;3.00;99.90;;;;;;5096572;28;20016;-65
2021/10/17 00:52:17;;;;;;;39.97;20.52;;;3.00;99.90;;;;;;5096254;28;20028;-65
2021/10/17 00:54:43;;;;;;;35.70;20.00;;;3.10;99.90;;;;;;5096476;28;20409;-65
2021/10/17 00:57:11;;;;;;;40.85;20.45;;;3.10;99.90;;;;;;5094735;28;20059;-65
2021/10/17 00:59:36;;;;;;;32.35;18.77;;;3.10;99.90;;;;;;5095222;28;20428;-66
2021/10/17 01:02:02;;;;;;;35.33;18.80;;;3.10;99.90;;;;;;5096316;28;20028;-65
2021/10/17 01:04:28;;;;;;;37.22;19.00;;;3.10;99.90;;;;;;5095843;28;20080;-65
2021/10/17 01:06:54;;;;;;;31.80;17.50;;;3.20;99.90;;;;;;5095672;28;20035;-65
2021/10/17 01:09:19;;;;;;;33.35;18.17;;;3.20;99.90;;;;;;5096182;28;20024;-65
2021/10/17 01:11:47;;;;;;;27.83;16.25;;;3.20;99.90;;;;;;5096163;28;20016;-65
2021/10/17 01:14:22;;;;;;;28.30;16.15;;;3.30;99.90;;;;;;5096132;28;20471;-65
2021/10/17 01:16:49;;;;;;;29.50;16.05;;;3.30;99.90;;;;;;5096030;28;20369;-65
2021/10/17 01:19:16;;;;;;;29.70;16.25;;;3.40;99.90;;;;;;5095722;28;20027;-65
2021/10/17 01:21:42;;;;;;;31.17;17.52;;;3.40;99.90;;;;;;5095941;28;20081;-65
2021/10/17 01:24:09;;;;;;;34.55;18.77;;;3.40;99.90;;;;;;5094449;28;20024;-67
2021/10/17 01:26:35;;;;;;;30.95;17.85;;;3.40;99.90;;;;;;5095497;28;20028;-67
2021/10/17 01:29:01;;;;;;;30.52;17.38;;;3.40;99.90;;;;;;5095525;28;20115;-66
2021/10/17 01:31:38;;;;;;;32.90;17.27;;;3.40;99.90;;;;;;5095798;28;20142;-66
2021/10/17 01:34:05;;;;;;;28.20;16.27;;;3.50;99.90;;;;;;5095154;28;20054;-67
2021/10/17 01:36:32;;;;;;;29.70;16.50;;;3.50;99.90;;;;;;5095654;28;20031;-65
2021/10/17 01:38:58;;;;;;;30.50;17.05;;;3.60;99.90;;;;;;5095598;28;20043;-65
2021/10/17 01:41:24;;;;;;;28.35;16.98;;;3.60;99.90;;;;;;5094434;28;20032;-67
2021/10/17 01:43:49;;;;;;;31.05;17.52;;;3.60;99.90;;;;;;5093684;28;20031;-64
2021/10/17 01:46:15;;;;;;;40.35;19.58;;;3.70;99.90;;;;;;5095384;28;20031;-67
2021/10/17 01:48:40;;;;;;;26.15;16.23;;;3.70;99.90;;;;;;5095451;28;20419;-67
2021/10/17 01:51:06;;;;;;;38.60;19.23;;;3.70;99.90;;;;;;5095073;28;20047;-65
2021/10/17 01:53:34;;;;;;;45.70;21.58;;;3.70;99.90;;;;;;5093550;28;20067;-65
2021/10/17 01:56:01;;;;;;;44.20;21.77;;;3.90;99.90;;;;;;5095308;28;20026;-65
2021/10/17 01:58:27;;;;;;;38.35;20.85;;;3.90;99.90;;;;;;5094678;28;20028;-65
2021/10/17 02:00:53;;;;;;;47.05;21.88;;;3.90;99.90;;;;;;5093801;28;20028;-65
2021/10/17 02:03:19;;;;;;;42.03;20.73;;;4.00;99.90;;;;;;5095141;28;20024;-65
2021/10/17 02:05:45;;;;;;;37.30;20.80;;;3.90;99.90;;;;;;5094445;28;20446;-65
2021/10/17 02:08:11;;;;;;;39.92;20.95;;;4.00;99.90;;;;;;5095055;28;20108;-65
2021/10/17 02:10:37;;;;;;;40.20;20.23;;;4.00;99.90;;;;;;5094761;28;20057;-65
2021/10/17 02:13:03;;;;;;;36.10;20.92;;;4.00;99.90;;;;;;5093219;28;20032;-66
2021/10/17 02:15:28;;;;;;;40.30;21.58;;;4.00;99.90;;;;;;5094916;28;20028;-66
2021/10/17 02:17:54;;;;;;;45.00;21.77;;;4.00;99.90;;;;;;5094870;28;20539;-65
2021/10/17 02:20:20;;;;;;;45.05;22.60;;;4.00;99.90;;;;;;5094847;28;20126;-65
2021/10/17 02:22:45;;;;;;;46.40;23.58;;;4.10;99.90;;;;;;5094775;28;20483;-65
2021/10/17 02:25:11;;;;;;;47.28;25.38;;;4.20;99.90;;;;;;5094675;28;20034;-66
2021/10/17 02:27:37;;;;;;;51.25;26.75;;;4.40;99.90;;;;;;5093253;28;20020;-66
2021/10/17 02:30:04;;;;;;;53.45;26.98;;;4.50;99.90;;;;;;5094686;28;20042;-66
2021/10/17 02:32:30;;;;;;;44.97;25.00;;;4.50;99.90;;;;;;5094637;28;20051;-66
2021/10/17 02:34:55;;;;;;;46.88;25.70;;;4.50;99.90;;;;;;5094199;28;20059;-66
2021/10/17 02:37:21;;;;;;;49.33;26.27;;;4.50;99.90;;;;;;5094564;28;20082;-66
2021/10/17 02:39:46;;;;;;;49.28;24.65;;;4.60;99.90;;;;;;5093106;28;20024;-66
2021/10/17 02:42:12;;;;;;;50.33;25.92;;;4.60;99.90;;;;;;5093038;28;20492;-66
2021/10/17 02:44:37;;;;;;;46.05;25.52;;;4.70;99.90;;;;;;5094363;28;20056;-65
2021/10/17 02:47:03;;;;;;;53.60;26.35;;;4.70;99.90;;;;;;5092969;28;20024;-66
2021/10/17 02:49:28;;;;;;;43.20;25.25;;;4.70;99.90;;;;;;5094117;28;20056;-66
2021/10/17 02:51:54;;;;;;;43.42;24.15;;;4.70;99.90;;;;;;5094350;28;20031;-66
2021/10/17 02:54:20;;;;;;;45.70;22.40;;;4.70;99.90;;;;;;5093205;28;20507;-66
2021/10/17 02:56:45;;;;;;;42.03;23.35;;;4.70;99.90;;;;;;5092565;28;20500;-67
2021/10/17 02:59:11;;;;;;;47.28;25.25;;;4.80;99.90;;;;;;5092864;28;20028;-66
2021/10/17 03:01:36;;;;;;;43.90;25.23;;;4.80;99.90;;;;;;5093924;28;20028;-66
2021/10/17 03:04:02;;;;;;;41.97;23.98;;;4.80;99.90;;;;;;5093747;28;20028;-66
2021/10/17 03:06:28;;;;;;;52.25;25.48;;;4.80;99.90;;;;;;5094117;28;20040;-66
2021/10/17 03:08:54;;;;;;;42.50;22.88;;;4.90;99.90;;;;;;5093889;28;20103;-66
2021/10/17 03:11:21;;;;;;;40.58;23.35;;;4.90;99.90;;;;;;5093888;28;20044;-66
2021/10/17 03:13:48;;;;;;;41.20;23.52;;;4.90;99.90;;;;;;5092325;28;20074;-66
2021/10/17 03:16:14;;;;;;;40.08;22.92;;;4.90;99.90;;;;;;5092314;28;20123;-66
2021/10/17 03:18:39;;;;;;;43.58;23.65;;;4.90;99.90;;;;;;5094064;28;20056;-66
2021/10/17 03:21:05;;;;;;;43.63;23.35;;;4.90;99.90;;;;;;5093941;28;20071;-66
2021/10/17 03:23:31;;;;;;;41.17;22.08;;;5.00;99.90;;;;;;5092579;28;20354;-66
2021/10/17 03:25:57;;;;;;;35.65;21.25;;;5.00;99.90;;;;;;5092518;28;20020;-66
2021/10/17 03:28:23;;;;;;;46.78;23.63;;;5.00;99.90;;;;;;5094005;28;20457;-66
2021/10/17 03:30:51;;;;;;;39.63;22.10;;;5.00;99.90;;;;;;5093996;28;20082;-66
2021/10/17 03:33:16;;;;;;;38.78;21.98;;;5.00;99.90;;;;;;5093674;28;20119;-66
2021/10/17 03:35:42;;;;;;;44.22;21.58;;;5.10;99.90;;;;;;5093925;28;20111;-66
2021/10/17 03:38:08;;;;;;;40.47;21.63;;;5.10;99.90;;;;;;5093927;28;20028;-66
2021/10/17 03:40:33;;;;;;;39.58;20.27;;;5.10;99.90;;;;;;5093889;28;20024;-66
2021/10/17 03:42:59;;;;;;;43.08;21.15;;;5.10;99.90;;;;;;5093834;28;20038;-66
2021/10/17 03:45:24;;;;;;;37.42;20.13;;;5.10;99.90;;;;;;5093751;28;20381;-66
2021/10/17 03:47:50;;;;;;;36.42;20.27;;;5.20;99.90;;;;;;5095238;28;20025;-66
2021/10/17 03:50:15;;;;;;;32.08;19.00;;;5.20;99.90;;;;;;5095904;28;20031;-66
2021/10/17 03:52:41;;;;;;;33.88;19.52;;;5.20;99.90;;;;;;5097696;28;20465;-66
2021/10/17 03:55:07;;;;;;;37.90;18.85;;;5.30;99.90;;;;;;5097617;28;20105;-66
2021/10/17 03:57:32;;;;;;;41.25;19.95;;;5.30;99.90;;;;;;5097613;28;20107;-66
2021/10/17 03:59:58;;;;;;;35.58;19.35;;;5.30;99.90;;;;;;5097254;28;20055;-66
2021/10/17 04:02:23;;;;;;;40.97;18.92;;;5.30;99.90;;;;;;5097516;28;20485;-66
2021/10/17 04:04:49;;;;;;;34.47;18.95;;;5.30;99.90;;;;;;5096948;28;20036;-66
2021/10/17 04:07:15;;;;;;;34.20;18.95;;;5.30;99.90;;;;;;5097086;28;20024;-66
2021/10/17 04:09:40;;;;;;;34.47;18.95;;;5.40;99.90;;;;;;5097081;28;20051;-66
2021/10/17 04:12:06;;;;;;;37.90;19.10;;;5.40;99.90;;;;;;5097295;28;20339;-66
2021/10/17 04:14:31;;;;;;;39.22;18.92;;;5.40;99.90;;;;;;5096724;28;20036;-66
2021/10/17 04:16:57;;;;;;;33.20;18.63;;;5.50;99.90;;;;;;5096675;28;20052;-66
2021/10/17 04:19:22;;;;;;;32.42;18.95;;;5.40;99.90;;;;;;5096911;28;20031;-66
2021/10/17 04:21:48;;;;;;;33.58;17.95;;;5.40;99.90;;;;;;5097107;28;20035;-66
2021/10/17 04:24:13;;;;;;;33.45;18.38;;;5.40;99.90;;;;;;5096814;28;20466;-67
2021/10/17 04:26:39;;;;;;;31.77;16.98;;;5.40;99.90;;;;;;5096944;28;20036;-66
2021/10/17 04:29:04;;;;;;;32.40;17.65;;;5.40;99.90;;;;;;5096405;28;20020;-66
2021/10/17 04:31:30;;;;;;;36.38;18.27;;;5.40;99.90;;;;;;5096667;28;20024;-66
2021/10/17 04:33:56;;;;;;;30.63;17.42;;;5.50;99.90;;;;;;5096870;28;20422;-67
2021/10/17 04:36:21;;;;;;;29.60;17.00;;;5.50;99.90;;;;;;5096848;28;20089;-66
2021/10/17 04:38:47;;;;;;;29.35;17.38;;;5.50;99.90;;;;;;5096254;28;20099;-66
2021/10/17 04:41:14;;;;;;;37.13;18.13;;;5.50;99.90;;;;;;5096196;28;20035;-68
2021/10/17 04:43:40;;;;;;;34.75;17.75;;;5.50;99.90;;;;;;5096704;28;20024;-66
2021/10/17 04:46:05;;;;;;;37.40;17.95;;;5.50;99.90;;;;;;5096576;28;20038;-68
2021/10/17 04:48:31;;;;;;;33.38;17.38;;;5.50;99.90;;;;;;5096605;28;20026;-65
2021/10/17 04:50:57;;;;;;;36.60;18.20;;;5.50;99.90;;;;;;5096598;28;20027;-68
2021/10/17 04:53:22;;;;;;;33.00;18.00;;;5.50;99.90;;;;;;5096565;28;20024;-66
2021/10/17 04:55:48;;;;;;;38.05;18.38;;;5.50;99.90;;;;;;5096206;28;20027;-66
2021/10/17 04:58:13;;;;;;;35.53;17.33;;;5.50;99.90;;;;;;5096109;28;20036;-66
2021/10/17 05:00:39;;;;;;;29.67;16.98;;;5.50;99.90;;;;;;5094627;28;20074;-66
2021/10/17 05:03:04;;;;;;;33.25;17.73;;;5.50;99.90;;;;;;5096324;28;20031;-66
2021/10/17 05:05:30;;;;;;;28.00;16.45;;;5.60;99.90;;;;;;5095578;28;20400;-67
2021/10/17 05:07:55;;;;;;;34.00;16.63;;;5.60;99.90;;;;;;5095952;28;20028;-68
2021/10/17 05:10:21;;;;;;;34.67;16.88;;;5.50;99.90;;;;;;5095940;28;20031;-68
2021/10/17 05:12:47;;;;;;;32.90;17.48;;;5.60;99.90;;;;;;5095876;28;20103;-68
2021/10/17 05:15:12;;;;;;;32.28;16.15;;;5.60;99.90;;;;;;5096123;28;20028;-66
2021/10/17 05:17:38;;;;;;;31.95;16.58;;;5.60;99.90;;;;;;5096050;28;20024;-66
2021/10/17 05:20:03;;;;;;;33.10;16.63;;;5.60;99.90;;;;;;5094777;28;20463;-65
2021/10/17 05:22:29;;;;;;;29.02;17.27;;;5.60;99.90;;;;;;5095381;28;20024;-66
2021/10/17 05:24:54;;;;;;;28.88;15.93;;;5.60;99.90;;;;;;5077134;28;20056;-65
2021/10/17 05:27:20;;;;;;;36.03;17.13;;;5.60;99.90;;;;;;5095544;28;20024;-65
2021/10/17 05:29:45;;;;;;;27.45;15.60;;;5.60;99.90;;;;;;5095776;28;20027;-66
2021/10/17 05:32:11;;;;;;;30.40;16.98;;;5.60;99.90;;;;;;5095773;28;20024;-66
2021/10/17 05:34:36;;;;;;;29.55;16.85;;;5.60;99.90;;;;;;5095696;28;20079;-68
2021/10/17 05:37:02;;;;;;;31.90;16.33;;;5.70;99.90;;;;;;5095674;28;20027;-67
2021/10/17 05:39:28;;;;;;;28.27;16.17;;;5.70;99.90;;;;;;5095604;28;20020;-67
2021/10/17 05:41:53;;;;;;;30.88;17.20;;;5.70;99.90;;;;;;5095576;28;20039;-67
2021/10/17 05:44:19;;;;;;;35.38;16.83;;;5.70;99.90;;;;;;5095525;28;20073;-67
2021/10/17 05:46:44;;;;;;;30.92;16.92;;;5.70;99.90;;;;;;5095389;28;20089;-67
2021/10/17 05:49:10;;;;;;;33.20;17.88;;;5.70;99.90;;;;;;5094261;28;20024;-67
2021/10/17 05:51:35;;;;;;;32.80;17.45;;;5.70;99.90;;;;;;5094229;28;20024;-67
2021/10/17 05:54:01;;;;;;;31.67;16.35;;;5.80;99.90;;;;;;5095068;28;20020;-68
2021/10/17 05:56:26;;;;;;;27.85;15.88;;;5.80;99.90;;;;;;5095302;28;20419;-67
2021/10/17 05:58:52;;;;;;;28.40;16.05;;;5.80;99.90;;;;;;5094130;28;20068;-67
2021/10/17 06:01:17;;;;;;;32.22;16.80;;;5.80;99.90;;;;;;5093377;28;20024;-67
2021/10/17 06:03:43;;;;;;;32.90;17.40;;;5.80;99.90;;;;;;5095154;28;20032;-67
2021/10/17 06:06:08;;;;;;;27.27;16.25;;;5.80;99.90;;;;;;5093234;28;20442;-67
2021/10/17 06:08:36;;;;;;;29.60;17.10;;;5.80;99.90;;;;;;5094794;28;20047;-67
2021/10/17 06:11:01;;;;;;;30.58;16.45;;;5.80;99.90;;;;;;5094318;28;20020;-67
2021/10/17 06:13:27;;;;;;;26.35;15.23;;;5.90;99.90;;;;;;5095005;28;20492;-67
2021/10/17 06:15:53;;;;;;;37.40;17.02;;;5.90;99.90;;;;;;5094694;28;20107;-67
2021/10/17 06:18:18;;;;;;;34.35;16.77;;;5.90;99.90;;;;;;5094850;28;20462;-67
2021/10/17 06:20:44;;;;;;;29.77;16.20;;;5.90;99.90;;;;;;5094295;28;20035;-67
2021/10/17 06:23:09;;;;;;;31.13;16.00;;;6.00;99.90;;;;;;5093295;28;20024;-67
2021/10/17 06:25:35;;;;;;;28.58;16.45;;;6.00;99.90;;;;;;5094704;28;20055;-67
2021/10/17 06:28:01;;;;;;;31.73;16.38;;;6.10;99.90;;;;;;5093000;28;20032;-67
2021/10/17 06:30:27;;;;;;;29.50;16.35;;;6.10;99.90;;;;;;5094396;28;20020;-68
2021/10/17 06:32:53;;;;;;;28.48;15.57;;;6.10;99.90;;;;;;5094656;28;20016;-66
2021/10/17 06:35:18;;;;;;;30.48;16.75;;;6.20;99.90;;;;;;5094593;28;20373;-66
2021/10/17 06:37:44;;;;;;;35.97;17.75;;;6.20;99.90;;;;;;5093055;28;20028;-66
2021/10/17 06:40:10;;;;;;;30.67;17.00;;;6.20;99.90;;;;;;5092850;28;20440;-68
2021/10/17 06:42:36;;;;;;;32.70;16.98;;;6.20;99.90;;;;;;5094485;28;20461;-66
2021/10/17 06:45:02;;;;;;;35.33;17.25;;;6.20;99.90;;;;;;5094419;28;20060;-68
2021/10/17 06:47:27;;;;;;;27.02;16.10;;;6.30;99.90;;;;;;5093878;28;20101;-67
2021/10/17 06:49:53;;;;;;;29.40;16.08;;;6.40;99.90;;;;;;5094345;28;20024;-67
2021/10/17 06:52:18;;;;;;;31.83;16.25;;;6.40;99.90;;;;;;5094274;28;20028;-67
2021/10/17 06:54:44;;;;;;;26.95;15.50;;;6.40;99.90;;;;;;5075780;28;20023;-68
2021/10/17 06:57:09;;;;;;;29.48;15.65;;;6.50;99.90;;;;;;5094310;28;20453;-68
2021/10/17 06:59:35;;;;;;;24.70;15.70;;;6.60;99.90;;;;;;5094287;28;20111;-67
2021/10/17 07:02:01;;;;;;;30.02;15.43;;;6.60;99.90;;;;;;5094269;28;20024;-67
2021/10/17 07:04:26;;;;;;;24.48;15.65;;;6.60;99.90;;;;;;5093642;28;20055;-67
2021/10/17 07:06:52;;;;;;;27.58;15.45;;;6.70;99.90;;;;;;5092903;28;20024;-66
2021/10/17 07:09:17;;;;;;;26.65;16.00;;;6.70;99.90;;;;;;5094209;28;20069;-68
2021/10/17 07:11:44;;;;;;;24.67;14.98;;;6.80;99.90;;;;;;5093629;28;20570;-67
2021/10/17 07:14:09;;;;;;;24.15;14.95;;;6.80;99.90;;;;;;5093914;28;20027;-68
2021/10/17 07:16:35;;;;;;;22.25;14.80;;;6.90;99.90;;;;;;5094107;28;20032;-68
2021/10/17 07:19:01;;;;;;;26.58;15.15;;;6.90;99.90;;;;;;5094088;28;20035;-68
2021/10/17 07:21:26;;;;;;;26.73;13.88;;;6.90;99.90;;;;;;5095200;28;20554;-67
2021/10/17 07:23:52;;;;;;;27.90;14.88;;;7.00;99.90;;;;;;5097988;28;20024;-68
2021/10/17 07:26:17;;;;;;;24.05;14.13;;;7.00;99.90;;;;;;5097853;28;20107;-68
2021/10/17 07:28:43;;;;;;;28.38;15.02;;;7.10;99.90;;;;;;5098147;28;20028;-69
2021/10/17 07:31:09;;;;;;;26.02;14.55;;;7.10;99.90;;;;;;5097852;28;20020;-67
2021/10/17 07:33:35;;;;;;;20.95;14.00;;;7.10;99.90;;;;;;5097079;28;20123;-68
2021/10/17 07:36:00;;;;;;;22.65;14.52;;;7.10;99.90;;;;;;5097489;28;20027;-69
2021/10/17 07:38:26;;;;;;;25.63;14.43;;;7.20;99.90;;;;;;5097702;28;20024;-68
2021/10/17 07:40:51;;;;;;;24.90;14.57;;;7.20;99.90;;;;;;5097653;28;20055;-67
2021/10/17 07:43:17;;;;;;;29.83;15.35;;;7.30;99.90;;;;;;5097338;28;20467;-68
2021/10/17 07:45:42;;;;;;;25.05;13.85;;;7.40;99.90;;;;;;5097742;28;20046;-67
2021/10/17 07:48:10;;;;;;;25.90;16.13;;;7.60;99.90;;;;;;5097817;28;20393;-68
2021/10/17 07:50:36;;;;;;;25.63;15.80;;;7.60;99.90;;;;;;5096569;28;20023;-68
2021/10/17 07:53:02;;;;;;;27.80;17.40;;;7.60;99.90;;;;;;5097729;28;20020;-68
2021/10/17 07:55:28;;;;;;;27.85;16.58;;;7.70;99.90;;;;;;5095863;28;20500;-68
2021/10/17 07:57:55;;;;;;;33.28;17.98;;;7.70;99.90;;;;;;5096276;28;20028;-68
2021/10/17 08:00:24;;;;;;;31.38;17.85;;;7.80;99.90;;;;;;5097761;28;20030;-68
2021/10/17 08:02:50;;;;;;;35.75;19.15;;;7.80;99.90;;;;;;5096940;28;20039;-68
2021/10/17 08:05:16;;;;;;;34.33;20.00;;;7.80;99.90;;;;;;5096761;28;20048;-68
2021/10/17 08:07:42;;;;;;;38.00;23.02;;;7.70;99.90;;;;;;5096540;28;20469;-68
2021/10/17 08:10:10;;;;;;;36.97;23.13;;;7.80;99.90;;;;;;5097366;28;20016;-67
2021/10/17 08:12:37;;;;;;;42.63;24.90;;;7.80;99.90;;;;;;5097046;28;20044;-68
2021/10/17 08:15:04;;;;;;;41.72;23.23;;;7.90;99.90;;;;;;5097269;28;20016;-68
2021/10/17 08:17:29;;;;;;;34.08;21.92;;;8.00;99.90;;;;;;5096868;28;20028;-69
2021/10/17 08:19:55;;;;;;;33.72;20.70;;;8.10;99.90;;;;;;5095340;28;20481;-69
2021/10/17 08:22:21;;;;;;;30.85;20.23;;;8.10;99.90;;;;;;5096791;28;20028;-69
2021/10/17 08:24:47;;;;;;;34.45;20.35;;;8.20;99.90;;;;;;5096965;28;20020;-69
2021/10/17 08:27:13;;;;;;;32.35;18.00;;;8.40;99.90;;;;;;5096467;28;20027;-69
2021/10/17 08:29:39;;;;;;;36.80;17.88;;;8.40;99.90;;;;;;5096786;28;20016;-68
2021/10/17 08:32:05;;;;;;;26.02;15.13;;;8.50;99.90;;;;;;5095219;28;20056;-68
2021/10/17 08:34:30;;;;;;;24.83;14.65;;;8.60;99.90;;;;;;5095895;28;20044;-68
2021/10/17 08:36:56;;;;;;;30.38;14.88;;;8.60;99.90;;;;;;5096858;28;20476;-68
2021/10/17 08:39:21;;;;;;;23.17;14.48;;;8.70;99.90;;;;;;5095057;28;20032;-69
2021/10/17 08:41:47;;;;;;;26.00;14.00;;;8.80;99.90;;;;;;5096729;28;20369;-68
2021/10/17 08:44:14;;;;;;;22.67;14.00;;;8.90;99.90;;;;;;5112068;28;20028;-69
2021/10/17 08:46:40;;;;;;;24.48;14.70;;;9.00;99.90;;;;;;5096621;28;20466;-69
2021/10/17 08:49:07;;;;;;;27.27;15.80;;;9.10;99.90;;;;;;5096361;28;20024;-69
2021/10/17 08:51:32;;;;;;;26.40;14.50;;;9.10;99.90;;;;;;5096617;28;20093;-69
2021/10/17 08:53:59;;;;;;;23.75;15.55;;;9.20;99.90;;;;;;5096553;28;20457;-69
2021/10/17 08:56:25;;;;;;;25.17;14.93;;;9.30;99.90;;;;;;5095232;28;20032;-68
2021/10/17 08:58:50;;;;;;;21.33;13.63;;;9.30;99.90;;;;;;5096182;28;20035;-69
2021/10/17 09:01:17;;;;;;;26.95;13.65;;;9.20;99.90;;;;;;5096416;28;20369;-69
2021/10/17 09:03:52;;;;;;;21.48;12.45;;;9.20;99.90;;;;;;5096378;28;20020;-69
2021/10/17 09:06:20;;;;;;;24.98;13.55;;;9.20;99.90;;;;;;5095937;28;20088;-69
2021/10/17 09:09:03;;;;;;;25.65;12.55;;;9.30;99.90;;;;;;5096271;28;20452;-69
2021/10/17 09:11:52;;;;;;;26.35;12.30;;;9.40;99.90;;;;;;5095657;28;20016;-69
2021/10/17 09:14:22;;;;;;;20.42;12.25;;;9.50;99.90;;;;;;5095580;28;20021;-69
2021/10/17 09:16:50;;;;;;;19.60;12.93;;;9.60;99.90;;;;;;5096088;28;20548;-67
2021/10/17 09:19:25;;;;;;;23.42;12.93;;;9.80;99.90;;;;;;5096049;28;20436;-68
2021/10/17 09:22:04;;;;;;;19.40;12.43;;;9.90;99.90;;;;;;5096029;28;20020;-68
2021/10/17 09:24:40;;;;;;;23.92;12.95;;;10.00;99.90;;;;;;5094504;28;20024;-68
2021/10/17 09:27:23;;;;;;;21.02;12.70;;;10.10;99.90;;;;;;5095904;28;20024;-68
2021/10/17 09:29:52;;;;;;;;;;;10.20;99.90;;;;;;5096337;28;20020;-68
2021/10/17 09:32:20;;;;;;;21.92;13.30;;;10.30;99.90;;;;;;5095785;28;19904;-68
2021/10/17 09:37:39;;;;;;;20.58;12.13;;;10.50;99.90;;;;;;5071688;28;20432;-69
2021/10/17 09:40:11;;;;;;;22.77;11.70;;;10.60;99.90;;;;;;5071415;28;20031;-69
2021/10/17 09:42:40;;;;;;;20.65;11.27;;;10.70;99.90;;;;;;5071347;28;20025;-68
2021/10/17 09:45:25;;;;;;;23.83;11.10;;;10.70;99.90;;;;;;5071039;28;20017;-68
2021/10/17 09:47:50;;;;;;;19.45;9.88;;;10.80;99.90;;;;;;5071194;28;20032;-67
2021/10/17 09:50:18;;;;;;;16.70;9.15;;;10.90;99.90;;;;;;5070237;28;20035;-68
2021/10/17 09:53:01;;;;;;;18.92;9.18;;;10.90;99.90;;;;;;5070596;28;20075;-68
2021/10/17 09:55:27;;;;;;;17.67;8.45;;;11.10;99.90;;;;;;5070048;28;20032;-68
2021/10/17 09:57:53;;;;;;;16.92;8.20;;;11.20;99.90;;;;;;5071028;28;20502;-68
2021/10/17 10:00:19;;;;;;;17.92;8.77;;;11.40;99.90;;;;;;5070973;28;20021;-68
2021/10/17 10:02:47;;;;;;;15.32;8.13;;;11.40;99.90;;;;;;5070636;28;20040;-68
2021/10/17 10:05:18;;;;;;;16.15;8.02;;;11.50;99.90;;;;;;5070854;28;20021;-68
2021/10/17 10:07:49;;;;;;;17.58;8.57;;;11.60;99.90;;;;;;5070820;28;20027;-68
2021/10/17 10:10:17;;;;;;;19.80;8.68;;;11.70;99.90;;;;;;5070731;28;20134;-68
2021/10/17 10:12:43;;;;;;;18.83;8.35;;;11.70;99.90;;;;;;5070454;28;20020;-68
2021/10/17 10:15:10;;;;;;;18.17;8.15;;;11.70;99.90;;;;;;5070270;28;20029;-68
2021/10/17 10:17:38;;;;;;;16.50;9.00;;;11.90;99.90;;;;;;5070643;28;20021;-68
2021/10/17 10:20:04;;;;;;;15.27;8.50;;;11.80;99.90;;;;;;5070299;28;20013;-68
2021/10/17 10:22:31;;;;;;;17.95;8.13;;;11.90;99.90;;;;;;5069377;28;20090;-68
2021/10/17 10:24:58;;;;;;;16.33;8.38;;;12.00;99.90;;;;;;5069034;28;20377;-68
2021/10/17 10:27:26;;;;;;;15.90;8.35;;;12.00;99.90;;;;;;5070442;28;20020;-68
2021/10/17 10:30:20;;;;;;;16.60;7.88;;;12.20;99.90;;;;;;5070420;28;20028;-68
2021/10/17 10:33:14;;;;;;;21.38;8.32;;;12.30;99.90;;;;;;5069807;28;20048;-68
2021/10/17 10:35:59;;;;;;;;;;;12.30;99.90;;;;;;5070112;28;20040;-68
2021/10/17 10:41:30;;;;;;;15.00;8.45;;;12.40;99.90;;;;;;5132490;27;20354;-67
2021/10/17 10:44:16;;;;;;;18.52;7.07;;;12.60;99.90;;;;;;5131952;27;20031;-68
2021/10/17 10:46:42;;;;;;;18.63;8.23;;;12.60;99.90;;;;;;5132378;27;20027;-68
2021/10/17 10:49:08;;;;;;;12.23;7.32;;;12.70;99.90;;;;;;5131787;27;20062;-68
2021/10/17 10:51:51;;;;;;;11.55;7.15;;;13.00;99.90;;;;;;5132283;27;20069;-68
2021/10/17 10:57:01;;;;;;;14.60;8.10;;;13.00;99.90;;;;;;5112207;27;20889;-67
2021/10/17 11:00:07;;;;;;;11.32;6.72;;;12.90;99.90;;;;;;5111938;28;20024;-67
2021/10/17 11:02:33;;;;;;;14.75;7.15;;;13.10;99.90;;;;;;5111220;28;20070;-68
2021/10/17 11:05:03;;;;;;;18.40;6.82;;;13.30;99.90;;;;;;5109918;28;20020;-67
2021/10/17 11:13:05;;;;;;;17.92;6.50;;;13.60;99.90;;;;;;5071684;28;20437;-67
2021/10/17 11:15:33;;;;;;;15.48;6.43;;;13.80;99.90;;;;;;5071396;28;20397;-67
2021/10/17 11:18:06;;;;;;;14.55;6.63;;;13.80;99.90;;;;;;5071299;28;20070;-68
2021/10/17 11:20:38;;;;;;;15.63;6.50;;;14.00;99.90;;;;;;5053439;28;20021;-68
2021/10/17 11:23:06;;;;;;;13.50;5.88;;;14.00;99.90;;;;;;5069802;28;20031;-67
2021/10/17 11:25:32;;;;;;;12.63;6.20;;;14.10;99.90;;;;;;5071169;28;20075;-68
2021/10/17 11:27:59;;;;;;;11.70;5.57;;;14.00;99.90;;;;;;5071141;28;20021;-67
2021/10/17 11:30:30;;;;;;;18.13;6.25;;;14.10;99.90;;;;;;5071100;28;20108;-68
2021/10/17 11:32:59;;;;;;;15.00;5.82;;;14.10;99.90;;;;;;5053578;28;20032;-68
2021/10/17 11:35:32;;;;;;;14.88;6.93;;;14.30;99.90;;;;;;5070993;28;20017;-68
2021/10/17 11:37:59;;;;;;;11.73;5.30;;;14.20;99.90;;;;;;5070699;28;20025;-68
2021/10/17 11:40:26;;;;;;;9.63;5.80;;;14.10;99.90;;;;;;5069424;28;20039;-68
2021/10/17 11:42:56;;;;;;;14.05;6.40;;;14.00;99.90;;;;;;5070858;28;20036;-68
2021/10/17 11:45:25;;;;;;;12.68;6.55;;;14.00;99.90;;;;;;5070805;28;20028;-68
2021/10/17 11:47:52;;;;;;;13.00;5.50;;;14.00;99.90;;;;;;5070470;28;20523;-68
2021/10/17 11:50:19;;;;;;;12.25;5.45;;;13.90;99.90;;;;;;5070664;28;20382;-68
2021/10/17 11:52:56;;;;;;;14.70;6.03;;;13.90;99.90;;;;;;5070568;28;20482;-68
2021/10/17 11:55:42;;;;;;;9.38;5.60;;;13.80;99.90;;;;;;5070024;28;20028;-68
2021/10/17 11:58:18;;;;;;;13.02;6.05;;;13.90;99.90;;;;;;5070471;28;20075;-68
2021/10/17 12:00:46;;;;;;;11.93;5.90;;;14.00;99.90;;;;;;5070450;28;20020;-68
2021/10/17 12:03:15;;;;;;;10.38;5.28;;;14.30;99.90;;;;;;5070380;28;20498;-68
2021/10/17 12:05:44;;;;;;;11.18;6.40;;;14.30;99.90;;;;;;5069812;28;20028;-68
2021/10/17 12:08:18;;;;;;;12.18;6.07;;;14.10;99.90;;;;;;5070002;28;20025;-68
2021/10/17 12:10:54;;;;;;;12.15;5.75;;;14.20;99.90;;;;;;5069928;28;20478;-68
2021/10/17 12:13:20;;;;;;;14.15;5.88;;;14.50;99.90;;;;;;5070199;28;20021;-68
2021/10/17 12:15:45;;;;;;;12.48;5.50;;;14.60;99.90;;;;;;5069857;28;20020;-68
2021/10/17 12:18:11;;;;;;;11.90;5.60;;;14.70;99.90;;;;;;5069810;28;20035;-68
2021/10/17 12:20:37;;;;;;;13.95;6.07;;;14.60;99.90;;;;;;5051681;28;20378;-68
2021/10/17 12:23:03;;;;;;;12.93;6.18;;;14.70;99.90;;;;;;5062853;28;20493;-68
2021/10/17 12:25:30;;;;;;;13.20;5.85;;;14.70;99.90;;;;;;5056505;28;20051;-68
2021/10/17 12:27:56;;;;;;;11.65;5.80;;;14.70;99.90;;;;;;5056469;28;20031;-68
2021/10/17 12:30:32;;;;;;;15.57;6.10;;;14.60;99.90;;;;;;5056431;28;20445;-68
2021/10/17 12:32:59;;;;;;;11.18;6.03;;;14.70;99.90;;;;;;5055093;28;20032;-68
2021/10/17 12:35:33;;;;;;;14.75;6.25;;;14.50;99.90;;;;;;5056572;28;20434;-68
2021/10/17 12:38:15;;;;;;;11.52;5.93;;;14.60;99.90;;;;;;5056484;28;20100;-68
2021/10/17 12:40:59;;;;;;;16.67;6.55;;;14.60;99.90;;;;;;5056520;28;20096;-68
2021/10/17 12:43:46;;;;;;;10.98;6.00;;;14.30;99.90;;;;;;5056443;28;20078;-68
2021/10/17 12:46:19;;;;;;;11.65;5.38;;;14.40;99.90;;;;;;5055820;28;20032;-68
2021/10/17 12:48:47;;;;;;;8.07;4.50;;;14.50;99.90;;;;;;5056068;28;20466;-68
2021/10/17 12:51:34;;;;;;;12.00;5.10;;;14.50;99.90;;;;;;5056250;28;20455;-68
2021/10/17 12:54:06;;;;;;;10.85;4.32;;;14.60;99.90;;;;;;5055787;28;20013;-68